Main page
METAR-TAF:

METAR-TAF

Airports :

Santa Rosa International Airport

Machala, Ecuador

latitude: 03-26-07S, longitude: 079-58-40W, elevation: 52 m

Current weather observation

The report was made 8 hours and 27 minutes ago, at 00:00 UTC
Wind 5 kt from the West/Northwest
Temperature 25°C
Humidity 79%
Pressure 1010 hPa
Visibility 10 km or more
Overcast at a height of 4000 ft

METAR: SERO 180000Z 30005KT 9999 OVC040 25/21 Q1010

Time: 03:27 (08:27 UTC)


TAF: missing

Weather observations and forecasts of more than 4000 airports (METAR and TAF reports).

The available stations are represented by yellow and red dots on the map.

Hover mouse over dot to see the name of the station.

Then click to see weather observations and forecasts.

To change the map : click on the green buttons with a black cross to zoom in, on the green button with a dash to zoom out, or on the green arrows for adjacent maps.


METAR-TAF: